Time;durP1;ratioP1;P1;durP2;ratioP2;P2;SDS_P1;SDS_P2;PMS_P1;PMS_P2;Temp;Humidity;BMP_temperature;BMP_pressure;BME280_temperature;BME280_humidity;BME280_pressure;Samples;Min_cycle;Max_cycle;Signal;HPM_P1;HPM_P2
2020/12/28 00:00:13;;;;;;;6.10;4.90;;;;;;;;;;5035970;28;20374;-79
2020/12/28 00:02:39;;;;;;;5.82;4.55;;;;;;;;;;5053992;28;20356;-77
2020/12/28 00:05:07;;;;;;;5.65;4.70;;;;;;;;;;5036573;28;20801;-76
2020/12/28 00:07:34;;;;;;;5.60;4.82;;;;;;;;;;5036176;28;20463;-77
2020/12/28 00:10:02;;;;;;;6.05;4.97;;;;;;;;;;5035878;28;20371;-76
2020/12/28 00:12:29;;;;;;;6.88;5.35;;;;;;;;;;5053172;28;20364;-76
2020/12/28 00:14:55;;;;;;;6.72;5.18;;;;;;;;;;5035343;28;20714;-77
2020/12/28 00:17:21;;;;;;;6.07;4.83;;;;;;;;;;5039866;28;20397;-76
2020/12/28 00:19:47;;;;;;;6.65;5.25;;;;;;;;;;5040468;28;20364;-77
2020/12/28 00:22:13;;;;;;;7.57;5.32;;;;;;;;;;5061739;28;20430;-77
2020/12/28 00:24:39;;;;;;;7.13;5.22;;;;;;;;;;5043284;28;20867;-78
2020/12/28 00:27:05;;;;;;;5.45;4.90;;;;;;;;;;5058388;28;20397;-78
2020/12/28 00:29:31;;;;;;;5.85;5.22;;;;;;;;;;5060434;28;20416;-80
2020/12/28 00:31:57;;;;;;;6.93;5.13;;;;;;;;;;5042590;28;20871;-77
2020/12/28 00:34:23;;;;;;;5.97;5.35;;;;;;;;;;5045554;28;20370;-77
2020/12/28 00:36:50;;;;;;;6.70;6.00;;;;;;;;;;5060738;28;20468;-75
2020/12/28 00:39:15;;;;;;;7.18;5.55;;;;;;;;;;5034778;28;20472;-81
2020/12/28 00:41:41;;;;;;;8.30;6.38;;;;;;;;;;5052938;28;20439;-76
2020/12/28 00:44:07;;;;;;;7.28;6.07;;;;;;;;;;5035131;28;20727;-76
2020/12/28 00:46:34;;;;;;;7.53;5.80;;;;;;;;;;5035299;28;20479;-78
2020/12/28 00:49:00;;;;;;;7.75;6.20;;;;;;;;;;5055030;28;20360;-79
2020/12/28 00:51:26;;;;;;;9.27;6.55;;;;;;;;;;5042758;28;20433;-79
2020/12/28 00:53:52;;;;;;;7.43;6.57;;;;;;;;;;5063703;28;20372;-77
2020/12/28 00:56:18;;;;;;;7.43;6.32;;;;;;;;;;5044270;28;20385;-78
2020/12/28 00:58:44;;;;;;;7.35;6.07;;;;;;;;;;5060139;28;20364;-77
2020/12/28 01:01:10;;;;;;;7.72;6.75;;;;;;;;;;5044807;28;20449;-76
2020/12/28 01:03:36;;;;;;;7.38;6.60;;;;;;;;;;5038519;28;20371;-78
2020/12/28 01:06:06;;;;;;;7.45;6.65;;;;;;;;;;5045499;28;20404;-76
2020/12/28 01:08:32;;;;;;;7.75;6.28;;;;;;;;;;5060203;28;20468;-77
2020/12/28 01:10:58;;;;;;;7.07;6.38;;;;;;;;;;5039609;28;20364;-77
2020/12/28 01:13:24;;;;;;;8.23;6.72;;;;;;;;;;5044330;28;20389;-77
2020/12/28 01:15:50;;;;;;;7.40;6.60;;;;;;;;;;5054234;28;20423;-77
2020/12/28 01:18:16;;;;;;;7.18;6.45;;;;;;;;;;5052874;28;20398;-77
2020/12/28 01:20:42;;;;;;;7.32;6.30;;;;;;;;;;5070757;28;20397;-78
2020/12/28 01:23:08;;;;;;;8.07;6.35;;;;;;;;;;5070470;28;20358;-78
2020/12/28 01:25:34;;;;;;;7.00;6.10;;;;;;;;;;5052838;28;20905;-77
2020/12/28 01:28:00;;;;;;;7.32;6.15;;;;;;;;;;5070711;28;20403;-78
2020/12/28 01:30:26;;;;;;;7.43;6.63;;;;;;;;;;5052399;28;20362;-78
2020/12/28 01:32:52;;;;;;;7.53;5.97;;;;;;;;;;5071497;28;20361;-77
2020/12/28 01:35:18;;;;;;;7.97;6.75;;;;;;;;;;5053703;28;20495;-78
2020/12/28 01:37:44;;;;;;;7.35;6.57;;;;;;;;;;5053907;28;20370;-76
2020/12/28 01:40:10;;;;;;;7.47;6.60;;;;;;;;;;5053645;28;20378;-76
2020/12/28 01:42:36;;;;;;;7.50;6.57;;;;;;;;;;5071585;28;20366;-77
2020/12/28 01:45:03;;;;;;;9.07;7.23;;;;;;;;;;5053698;28;20382;-77
2020/12/28 01:47:29;;;;;;;7.85;7.05;;;;;;;;;;5071875;28;20446;-77
2020/12/28 01:49:55;;;;;;;8.93;7.07;;;;;;;;;;5071411;28;20900;-75
2020/12/28 01:52:22;;;;;;;8.65;7.55;;;;;;;;;;5071630;28;20832;-76
2020/12/28 01:54:48;;;;;;;10.40;7.53;;;;;;;;;;5053812;28;20405;-77
2020/12/28 01:57:14;;;;;;;9.25;7.32;;;;;;;;;;5071193;28;20408;-77
2020/12/28 01:59:40;;;;;;;9.57;7.97;;;;;;;;;;5071161;28;20358;-77
2020/12/28 02:02:07;;;;;;;8.65;7.65;;;;;;;;;;5071285;28;20355;-77
2020/12/28 02:04:33;;;;;;;8.98;7.95;;;;;;;;;;5071059;28;20370;-77
2020/12/28 02:07:00;;;;;;;8.57;7.68;;;;;;;;;;5053667;28;20449;-78
2020/12/28 02:09:26;;;;;;;8.57;7.47;;;;;;;;;;5070963;28;20370;-76
2020/12/28 02:11:54;;;;;;;9.67;8.17;;;;;;;;;;5053097;28;20374;-77
2020/12/28 02:14:20;;;;;;;9.93;8.40;;;;;;;;;;5070795;28;20426;-77
2020/12/28 02:16:46;;;;;;;9.40;8.17;;;;;;;;;;5053182;28;20793;-77
2020/12/28 02:19:12;;;;;;;9.93;8.48;;;;;;;;;;5053032;28;20769;-77
2020/12/28 02:21:38;;;;;;;8.65;7.75;;;;;;;;;;5071557;28;20886;-77
2020/12/28 02:24:05;;;;;;;9.68;7.93;;;;;;;;;;5071478;28;20848;-77
2020/12/28 02:26:31;;;;;;;10.03;8.20;;;;;;;;;;5070953;28;20914;-77
2020/12/28 02:28:57;;;;;;;10.00;8.32;;;;;;;;;;5070847;28;20370;-83
2020/12/28 02:31:23;;;;;;;8.77;7.88;;;;;;;;;;5071014;28;20370;-77
2020/12/28 02:33:49;;;;;;;9.88;8.15;;;;;;;;;;5053003;28;20369;-76
2020/12/28 02:36:15;;;;;;;10.00;8.35;;;;;;;;;;5053327;28;20377;-78
2020/12/28 02:38:41;;;;;;;9.40;8.27;;;;;;;;;;5071087;28;20362;-76
2020/12/28 02:41:07;;;;;;;9.07;7.45;;;;;;;;;;5071043;28;20863;-77
2020/12/28 02:43:33;;;;;;;9.43;7.80;;;;;;;;;;5052804;28;20374;-77
2020/12/28 02:45:59;;;;;;;9.38;7.90;;;;;;;;;;5052795;28;20401;-77
2020/12/28 02:48:25;;;;;;;10.37;8.00;;;;;;;;;;5053009;28;20377;-78
2020/12/28 02:50:51;;;;;;;9.35;7.88;;;;;;;;;;5052805;28;20372;-76
2020/12/28 02:53:18;;;;;;;8.13;7.25;;;;;;;;;;5052798;28;20450;-76
2020/12/28 02:55:44;;;;;;;9.90;8.35;;;;;;;;;;5071124;28;20394;-76
2020/12/28 02:58:10;;;;;;;9.57;8.57;;;;;;;;;;5053088;28;20845;-76
2020/12/28 03:00:36;;;;;;;11.25;8.15;;;;;;;;;;5070836;28;20449;-76
2020/12/28 03:03:02;;;;;;;10.65;7.63;;;;;;;;;;5052781;28;20371;-76
2020/12/28 03:05:28;;;;;;;9.02;8.07;;;;;;;;;;5052785;28;20398;-77
2020/12/28 03:07:54;;;;;;;9.88;8.38;;;;;;;;;;5070536;28;20354;-76
2020/12/28 03:10:20;;;;;;;9.85;7.95;;;;;;;;;;5052584;28;20366;-77
2020/12/28 03:12:46;;;;;;;10.07;8.32;;;;;;;;;;5052684;28;20374;-76
2020/12/28 03:15:12;;;;;;;10.02;8.30;;;;;;;;;;5052874;28;20460;-77
2020/12/28 03:17:38;;;;;;;9.25;8.20;;;;;;;;;;5070895;28;20436;-78
2020/12/28 03:20:04;;;;;;;9.63;8.63;;;;;;;;;;5053104;28;20365;-77
2020/12/28 03:22:30;;;;;;;10.10;8.80;;;;;;;;;;5071010;28;20350;-76
2020/12/28 03:24:56;;;;;;;10.68;8.75;;;;;;;;;;5053103;28;20374;-77
2020/12/28 03:27:22;;;;;;;10.73;8.73;;;;;;;;;;5072652;28;20492;-76
2020/12/28 03:29:48;;;;;;;10.27;8.50;;;;;;;;;;5074270;28;20527;-77
2020/12/28 03:32:14;;;;;;;10.17;8.87;;;;;;;;;;5074373;28;20350;-76
2020/12/28 03:34:41;;;;;;;9.65;8.07;;;;;;;;;;5074495;28;20420;-76
2020/12/28 03:37:07;;;;;;;9.75;8.35;;;;;;;;;;5074443;28;20394;-77
2020/12/28 03:39:33;;;;;;;10.00;8.25;;;;;;;;;;5056468;28;20366;-77
2020/12/28 03:41:59;;;;;;;10.48;8.27;;;;;;;;;;5074502;28;20362;-76
2020/12/28 03:44:25;;;;;;;10.37;8.20;;;;;;;;;;5074605;28;20358;-76
2020/12/28 03:46:51;;;;;;;9.90;8.63;;;;;;;;;;5056328;28;20409;-75
2020/12/28 03:49:18;;;;;;;9.50;8.43;;;;;;;;;;5056578;28;20441;-76
2020/12/28 03:51:44;;;;;;;9.38;8.38;;;;;;;;;;5056382;28;20435;-77
2020/12/28 03:54:10;;;;;;;9.27;8.27;;;;;;;;;;5056018;28;20833;-77
2020/12/28 03:56:36;;;;;;;10.07;8.43;;;;;;;;;;5074145;28;20405;-76
2020/12/28 03:59:02;;;;;;;10.05;8.85;;;;;;;;;;5056192;28;20424;-76
2020/12/28 04:01:28;;;;;;;9.45;8.45;;;;;;;;;;5074282;28;20365;-75
2020/12/28 04:03:54;;;;;;;8.98;7.95;;;;;;;;;;5074249;28;20366;-76
2020/12/28 04:06:20;;;;;;;9.55;8.40;;;;;;;;;;5056131;28;20429;-75
2020/12/28 04:08:46;;;;;;;9.17;8.10;;;;;;;;;;5056112;28;20444;-76
2020/12/28 04:11:12;;;;;;;9.63;8.13;;;;;;;;;;5073836;28;20650;-77
2020/12/28 04:13:38;;;;;;;10.25;9.10;;;;;;;;;;5055823;28;20358;-77
2020/12/28 04:16:05;;;;;;;9.60;8.57;;;;;;;;;;5055651;28;20764;-77
2020/12/28 04:18:31;;;;;;;11.38;9.30;;;;;;;;;;5055721;28;20462;-77
2020/12/28 04:20:57;;;;;;;10.15;8.60;;;;;;;;;;5073195;28;20382;-77
2020/12/28 04:23:23;;;;;;;10.38;8.45;;;;;;;;;;5055422;28;20409;-76
2020/12/28 04:25:49;;;;;;;8.57;7.67;;;;;;;;;;5073567;28;20426;-76
2020/12/28 04:28:15;;;;;;;9.27;8.23;;;;;;;;;;5072979;28;20420;-78
2020/12/28 04:30:41;;;;;;;10.35;8.35;;;;;;;;;;5055286;28;20370;-76
2020/12/28 04:33:07;;;;;;;12.10;8.18;;;;;;;;;;5055251;28;20367;-76
2020/12/28 04:35:33;;;;;;;8.73;7.80;;;;;;;;;;5073814;28;20354;-77
2020/12/28 04:37:59;;;;;;;10.32;9.23;;;;;;;;;;5055077;28;20725;-77
2020/12/28 04:40:25;;;;;;;9.68;8.02;;;;;;;;;;5073471;28;20491;-75
2020/12/28 04:42:53;;;;;;;9.85;8.27;;;;;;;;;;5073275;28;20394;-77
2020/12/28 04:45:19;;;;;;;9.70;8.50;;;;;;;;;;5073202;28;20891;-77
2020/12/28 04:47:45;;;;;;;9.90;8.60;;;;;;;;;;5072953;28;20381;-76
2020/12/28 04:50:11;;;;;;;10.30;9.02;;;;;;;;;;5054873;28;20857;-76
2020/12/28 04:52:37;;;;;;;10.13;8.73;;;;;;;;;;5073365;28;20355;-76
2020/12/28 04:55:03;;;;;;;10.25;8.80;;;;;;;;;;5055111;28;20404;-76
2020/12/28 04:57:30;;;;;;;9.73;8.55;;;;;;;;;;5054984;28;20386;-76
2020/12/28 04:59:56;;;;;;;9.05;7.97;;;;;;;;;;5055209;28;20374;-76
2020/12/28 05:02:23;;;;;;;9.88;8.80;;;;;;;;;;5055419;28;20362;-76
2020/12/28 05:04:49;;;;;;;11.65;8.93;;;;;;;;;;5073221;28;20383;-76
2020/12/28 05:07:15;;;;;;;8.95;8.02;;;;;;;;;;5072853;28;20400;-78
2020/12/28 05:09:41;;;;;;;9.80;8.80;;;;;;;;;;5055099;28;20512;-76
2020/12/28 05:12:08;;;;;;;10.70;9.50;;;;;;;;;;5072834;28;20716;-75
2020/12/28 05:14:34;;;;;;;11.00;8.68;;;;;;;;;;5072783;28;20358;-79
2020/12/28 05:17:03;;;;;;;9.38;8.45;;;;;;;;;;5054994;28;20373;-76
2020/12/28 05:19:29;;;;;;;9.30;8.30;;;;;;;;;;5054567;28;20450;-78
2020/12/28 05:21:56;;;;;;;11.02;8.82;;;;;;;;;;5072585;28;20359;-75
2020/12/28 05:24:22;;;;;;;10.68;8.95;;;;;;;;;;5055080;28;20419;-77
2020/12/28 05:26:49;;;;;;;9.77;8.77;;;;;;;;;;5072362;28;20433;-76
2020/12/28 05:29:17;;;;;;;9.60;8.60;;;;;;;;;;5072248;28;20357;-77
2020/12/28 05:31:44;;;;;;;10.75;9.13;;;;;;;;;;5072535;28;20362;-76
2020/12/28 05:34:13;;;;;;;10.60;8.95;;;;;;;;;;5072437;28;20738;-77
2020/12/28 05:36:39;;;;;;;9.60;8.50;;;;;;;;;;5072591;28;20367;-77
2020/12/28 05:39:05;;;;;;;10.50;9.13;;;;;;;;;;5071830;28;20406;-76
2020/12/28 05:41:31;;;;;;;9.85;8.85;;;;;;;;;;5054325;28;20377;-76
2020/12/28 05:44:07;;;;;;;9.73;8.73;;;;;;;;;;5071946;28;20825;-76
2020/12/28 05:46:34;;;;;;;9.52;8.50;;;;;;;;;;5071962;28;20394;-76
2020/12/28 05:49:01;;;;;;;9.68;8.68;;;;;;;;;;5053376;28;20384;-77
2020/12/28 05:51:27;;;;;;;9.82;8.82;;;;;;;;;;5053698;28;20910;-76
2020/12/28 05:53:53;;;;;;;9.93;8.93;;;;;;;;;;5053956;28;20449;-76
2020/12/28 05:56:19;;;;;;;9.98;8.70;;;;;;;;;;5072179;28;20366;-76
2020/12/28 05:58:46;;;;;;;9.23;8.32;;;;;;;;;;5071819;28;20892;-77
2020/12/28 06:01:13;;;;;;;9.60;8.60;;;;;;;;;;5071919;28;20449;-76
2020/12/28 06:03:42;;;;;;;9.50;8.50;;;;;;;;;;5053738;28;20377;-74
2020/12/28 06:06:08;;;;;;;9.10;8.20;;;;;;;;;;5072010;28;20405;-76
2020/12/28 06:08:34;;;;;;;9.73;8.73;;;;;;;;;;5053728;28;20478;-76
2020/12/28 06:11:04;;;;;;;9.63;8.73;;;;;;;;;;5071034;28;20441;-77
2020/12/28 06:13:30;;;;;;;9.88;8.88;;;;;;;;;;5054024;28;20376;-76
2020/12/28 06:15:57;;;;;;;10.43;8.68;;;;;;;;;;5053562;28;20725;-77
2020/12/28 06:18:23;;;;;;;9.07;8.15;;;;;;;;;;5053255;28;20728;-77
2020/12/28 06:20:49;;;;;;;9.63;8.73;;;;;;;;;;5053701;28;20363;-76
2020/12/28 06:23:24;;;;;;;9.73;8.73;;;;;;;;;;5054055;28;20358;-79
2020/12/28 06:25:53;;;;;;;10.27;9.27;;;;;;;;;;5072041;28;20927;-76
2020/12/28 06:28:26;;;;;;;9.00;8.07;;;;;;;;;;5054113;28;20370;-76
2020/12/28 06:30:52;;;;;;;9.80;8.82;;;;;;;;;;5053094;28;20385;-76
2020/12/28 06:33:18;;;;;;;9.60;8.60;;;;;;;;;;5071179;28;20455;-78
2020/12/28 06:35:44;;;;;;;9.98;8.98;;;;;;;;;;5054081;28;20465;-76
2020/12/28 06:38:10;;;;;;;10.63;9.10;;;;;;;;;;5071561;28;20362;-76
2020/12/28 06:40:40;;;;;;;9.70;8.70;;;;;;;;;;5053293;28;20378;-76
2020/12/28 06:43:09;;;;;;;10.20;9.18;;;;;;;;;;5053222;28;20499;-77
2020/12/28 06:45:36;;;;;;;10.90;9.33;;;;;;;;;;5053551;28;20386;-76
2020/12/28 06:48:02;;;;;;;10.10;9.10;;;;;;;;;;5052915;28;20393;-77
2020/12/28 06:50:28;;;;;;;10.43;9.35;;;;;;;;;;5053098;28;20371;-76
2020/12/28 06:52:54;;;;;;;9.77;8.87;;;;;;;;;;5052896;28;20395;-78
2020/12/28 06:55:22;;;;;;;9.85;8.85;;;;;;;;;;5052894;28;20365;-76
2020/12/28 06:57:48;;;;;;;10.27;9.17;;;;;;;;;;5071145;28;20350;-77
2020/12/28 07:00:22;;;;;;;10.07;9.07;;;;;;;;;;5070775;28;20362;-76
2020/12/28 07:02:54;;;;;;;9.90;8.90;;;;;;;;;;5075200;28;20363;-76
2020/12/28 07:05:24;;;;;;;10.95;9.02;;;;;;;;;;5074870;28;20932;-76
2020/12/28 07:07:50;;;;;;;9.98;8.98;;;;;;;;;;5075212;28;20366;-77
2020/12/28 07:10:17;;;;;;;10.02;9.02;;;;;;;;;;5074956;28;20382;-77
2020/12/28 07:12:43;;;;;;;9.35;8.43;;;;;;;;;;5056873;28;20460;-76
2020/12/28 07:15:10;;;;;;;9.80;8.80;;;;;;;;;;5074866;28;20357;-78
2020/12/28 07:17:36;;;;;;;10.23;9.20;;;;;;;;;;5057472;28;20423;-76
2020/12/28 07:20:03;;;;;;;9.57;8.57;;;;;;;;;;5057799;28;20362;-76
2020/12/28 07:22:32;;;;;;;10.65;9.43;;;;;;;;;;5057154;28;20376;-76
2020/12/28 07:24:58;;;;;;;10.65;9.57;;;;;;;;;;5075072;28;20358;-77
2020/12/28 07:27:24;;;;;;;10.20;9.20;;;;;;;;;;5057535;28;20425;-76
2020/12/28 07:29:50;;;;;;;10.52;9.35;;;;;;;;;;5074902;28;20393;-77
2020/12/28 07:32:18;;;;;;;10.50;9.40;;;;;;;;;;5057617;28;20785;-76
2020/12/28 07:34:51;;;;;;;10.20;9.20;;;;;;;;;;5057454;28;20382;-76
2020/12/28 07:37:18;;;;;;;10.05;9.05;;;;;;;;;;5057404;28;20714;-76
2020/12/28 07:39:45;;;;;;;11.13;9.93;;;;;;;;;;5074266;28;20479;-76
2020/12/28 07:42:11;;;;;;;9.98;8.98;;;;;;;;;;5056359;28;20449;-79
2020/12/28 07:44:37;;;;;;;10.40;9.35;;;;;;;;;;5074998;28;20461;-77
2020/12/28 07:47:04;;;;;;;9.50;8.50;;;;;;;;;;5074227;28;20802;-77
2020/12/28 07:49:36;;;;;;;10.20;9.20;;;;;;;;;;5056657;28;20828;-76
2020/12/28 07:52:05;;;;;;;10.00;9.00;;;;;;;;;;5074793;28;20351;-76
2020/12/28 07:54:38;;;;;;;10.40;9.10;;;;;;;;;;5056453;28;20370;-78
2020/12/28 07:57:05;;;;;;;10.40;9.10;;;;;;;;;;5074270;28;20852;-77
2020/12/28 07:59:46;;;;;;;9.63;8.60;;;;;;;;;;5073730;28;20373;-77
2020/12/28 08:02:24;;;;;;;10.70;9.60;;;;;;;;;;5073973;28;20362;-76
2020/12/28 08:04:50;;;;;;;10.10;9.00;;;;;;;;;;5055866;28;20378;-77
2020/12/28 08:07:21;;;;;;;10.20;9.13;;;;;;;;;;5073974;28;20433;-77
2020/12/28 08:09:56;;;;;;;9.68;8.68;;;;;;;;;;5074010;28;20354;-76
2020/12/28 08:12:22;;;;;;;9.93;8.93;;;;;;;;;;5055119;28;20480;-77
2020/12/28 08:14:52;;;;;;;10.43;9.32;;;;;;;;;;5073835;28;20354;-76
2020/12/28 08:17:18;;;;;;;10.25;9.25;;;;;;;;;;5056303;28;20453;-78
2020/12/28 08:19:44;;;;;;;9.45;8.55;;;;;;;;;;5055643;28;20366;-77
2020/12/28 08:22:20;;;;;;;10.50;9.40;;;;;;;;;;5074410;28;20431;-76
2020/12/28 08:24:46;;;;;;;10.33;9.23;;;;;;;;;;5056358;28;20767;-76
2020/12/28 08:27:12;;;;;;;10.40;9.40;;;;;;;;;;5056320;28;20405;-76
2020/12/28 08:29:38;;;;;;;9.98;9.07;;;;;;;;;;5056116;28;20423;-76
2020/12/28 08:32:04;;;;;;;10.40;9.40;;;;;;;;;;5056152;28;20915;-76
2020/12/28 08:34:31;;;;;;;9.90;8.93;;;;;;;;;;5073530;28;20409;-77
2020/12/28 08:36:57;;;;;;;10.30;9.20;;;;;;;;;;5073728;28;20520;-77
2020/12/28 08:39:24;;;;;;;9.65;8.65;;;;;;;;;;5073655;28;20766;-77
2020/12/28 08:41:58;;;;;;;10.27;9.27;;;;;;;;;;5073646;28;20373;-77
2020/12/28 08:44:24;;;;;;;10.98;9.35;;;;;;;;;;5073672;28;20369;-76
2020/12/28 08:46:51;;;;;;;10.73;9.30;;;;;;;;;;5073360;28;20459;-76
2020/12/28 08:49:26;;;;;;;10.20;9.18;;;;;;;;;;5054829;28;20608;-77
2020/12/28 08:51:52;;;;;;;10.18;9.18;;;;;;;;;;5055112;28;20459;-77
2020/12/28 08:54:25;;;;;;;10.07;9.07;;;;;;;;;;5055540;28;20366;-77
2020/12/28 08:56:52;;;;;;;10.25;9.25;;;;;;;;;;5050982;28;20376;-79
2020/12/28 08:59:18;;;;;;;10.57;9.53;;;;;;;;;;5034849;28;20363;-76
2020/12/28 09:01:46;;;;;;;10.85;9.75;;;;;;;;;;5035213;28;20727;-76
2020/12/28 09:04:12;;;;;;;11.27;9.37;;;;;;;;;;5034584;28;20481;-78
2020/12/28 09:06:41;;;;;;;10.13;9.10;;;;;;;;;;5052612;28;20403;-79
2020/12/28 09:09:07;;;;;;;11.00;9.90;;;;;;;;;;5052239;28;20374;-79
2020/12/28 09:11:33;;;;;;;10.20;9.18;;;;;;;;;;5052255;28;20967;-79
2020/12/28 09:14:00;;;;;;;10.02;9.02;;;;;;;;;;5035122;28;20417;-76
2020/12/28 09:16:26;;;;;;;10.07;9.10;;;;;;;;;;5035058;28;20371;-77
2020/12/28 09:18:52;;;;;;;10.95;9.18;;;;;;;;;;5035155;28;20881;-76
2020/12/28 09:21:18;;;;;;;10.30;9.27;;;;;;;;;;5034728;28;20368;-78
2020/12/28 09:23:45;;;;;;;10.05;9.05;;;;;;;;;;5052099;28;20502;-77
2020/12/28 09:26:11;;;;;;;12.30;11.02;;;;;;;;;;5052319;28;20490;-76
2020/12/28 09:28:37;;;;;;;12.40;11.10;;;;;;;;;;5052631;28;20370;-77
2020/12/28 09:31:03;;;;;;;13.10;11.80;;;;;;;;;;5052143;28;20851;-76
2020/12/28 09:33:29;;;;;;;13.02;11.63;;;;;;;;;;5052833;28;20371;-76
2020/12/28 09:35:55;;;;;;;9.77;8.70;;;;;;;;;;5034748;28;20859;-79
2020/12/28 09:38:22;;;;;;;10.95;9.23;;;;;;;;;;5052941;28;20577;-76
2020/12/28 09:40:48;;;;;;;11.80;9.38;;;;;;;;;;5034793;28;20371;-78
2020/12/28 09:43:14;;;;;;;10.00;9.00;;;;;;;;;;5052165;28;20454;-77
2020/12/28 09:45:40;;;;;;;9.70;8.75;;;;;;;;;;5052691;28;20388;-82
2020/12/28 09:48:06;;;;;;;9.90;8.90;;;;;;;;;;5034465;28;20371;-85
2020/12/28 09:50:32;;;;;;;9.93;8.93;;;;;;;;;;5056500;28;20481;-79
2020/12/28 09:52:58;;;;;;;9.95;8.80;;;;;;;;;;5065808;28;20364;-77
2020/12/28 09:55:24;;;;;;;11.18;9.85;;;;;;;;;;5042633;28;20398;-77
2020/12/28 09:57:50;;;;;;;10.60;9.50;;;;;;;;;;5040990;28;20915;-77
2020/12/28 10:00:16;;;;;;;11.10;9.82;;;;;;;;;;5046772;28;20402;-77
2020/12/28 10:02:42;;;;;;;10.43;9.32;;;;;;;;;;5060921;28;20370;-78
2020/12/28 10:05:09;;;;;;;11.57;10.00;;;;;;;;;;5062118;28;20397;-77
2020/12/28 10:07:35;;;;;;;10.57;9.27;;;;;;;;;;5042748;28;20403;-80
2020/12/28 10:10:02;;;;;;;11.68;9.52;;;;;;;;;;5060720;28;20698;-80
2020/12/28 10:12:28;;;;;;;10.48;9.00;;;;;;;;;;5041740;28;20365;-80
2020/12/28 10:14:54;;;;;;;10.82;9.00;;;;;;;;;;5061276;28;20427;-80
2020/12/28 10:17:20;;;;;;;9.68;8.57;;;;;;;;;;5039589;28;20414;-80
2020/12/28 10:19:46;;;;;;;9.40;8.40;;;;;;;;;;5061494;28;20359;-78
2020/12/28 10:22:13;;;;;;;10.25;8.45;;;;;;;;;;5044328;28;20366;-80
2020/12/28 10:24:40;;;;;;;9.40;8.50;;;;;;;;;;5062541;28;20367;-79
2020/12/28 10:27:06;;;;;;;9.27;8.38;;;;;;;;;;5042584;28;21023;-79
2020/12/28 10:29:32;;;;;;;9.18;8.27;;;;;;;;;;5056003;28;20509;-78
2020/12/28 10:31:58;;;;;;;9.73;8.60;;;;;;;;;;5041789;28;20882;-78
2020/12/28 10:34:25;;;;;;;8.68;7.85;;;;;;;;;;5060832;28;20356;-78
2020/12/28 10:36:51;;;;;;;9.18;8.27;;;;;;;;;;5051431;28;20447;-80
2020/12/28 10:39:17;;;;;;;8.93;8.00;;;;;;;;;;5069795;28;20354;-79
2020/12/28 10:41:43;;;;;;;10.43;8.57;;;;;;;;;;5069853;28;20387;-77
2020/12/28 10:44:09;;;;;;;10.85;8.77;;;;;;;;;;5052398;28;20793;-80
2020/12/28 10:46:37;;;;;;;10.32;8.52;;;;;;;;;;5069896;28;20479;-77
2020/12/28 10:49:04;;;;;;;9.18;8.20;;;;;;;;;;5051937;28;20891;-77
2020/12/28 10:51:30;;;;;;;9.70;8.70;;;;;;;;;;5069903;28;20709;-77
2020/12/28 10:53:56;;;;;;;8.60;7.70;;;;;;;;;;5052287;28;20370;-77
2020/12/28 10:56:23;;;;;;;11.45;8.55;;;;;;;;;;5069897;28;20458;-77
2020/12/28 10:58:49;;;;;;;9.15;8.13;;;;;;;;;;5066980;28;20881;-79
2020/12/28 11:01:15;;;;;;;9.27;8.38;;;;;;;;;;5050946;28;20382;-77
2020/12/28 11:03:41;;;;;;;8.77;7.78;;;;;;;;;;5051966;28;20370;-78
2020/12/28 11:06:07;;;;;;;9.18;8.23;;;;;;;;;;5052146;28;20402;-80
2020/12/28 11:08:33;;;;;;;9.07;8.18;;;;;;;;;;5051674;28;20384;-80
2020/12/28 11:10:59;;;;;;;9.48;8.27;;;;;;;;;;5069764;28;20853;-80
2020/12/28 11:13:25;;;;;;;9.38;8.23;;;;;;;;;;5052449;28;20378;-78
2020/12/28 11:15:51;;;;;;;9.45;7.88;;;;;;;;;;5070280;28;20749;-80
2020/12/28 11:18:17;;;;;;;9.00;8.10;;;;;;;;;;5069623;28;20449;-81
2020/12/28 11:20:43;;;;;;;9.57;8.57;;;;;;;;;;5057451;28;20359;-78
2020/12/28 11:23:09;;;;;;;9.35;8.35;;;;;;;;;;5039573;28;20447;-79
2020/12/28 11:25:35;;;;;;;9.75;8.32;;;;;;;;;;5048221;28;20817;-82
2020/12/28 11:28:02;;;;;;;9.07;8.07;;;;;;;;;;5037462;28;20370;-84
2020/12/28 11:30:28;;;;;;;10.65;8.20;;;;;;;;;;5068275;28;20354;-83
2020/12/28 11:32:54;;;;;;;11.35;8.70;;;;;;;;;;5048339;28;20401;-80
2020/12/28 11:35:22;;;;;;;9.40;8.40;;;;;;;;;;5025307;28;20486;-82
2020/12/28 11:37:49;;;;;;;10.23;8.32;;;;;;;;;;5062866;28;20443;-84
2020/12/28 11:40:16;;;;;;;8.95;7.72;;;;;;;;;;5048326;28;20427;-85
2020/12/28 11:42:42;;;;;;;10.10;8.38;;;;;;;;;;5044665;28;20455;-82
2020/12/28 11:45:09;;;;;;;11.32;9.20;;;;;;;;;;5053897;28;20506;-79
2020/12/28 11:47:37;;;;;;;10.77;9.00;;;;;;;;;;5052360;28;20406;-81
2020/12/28 11:50:08;;;;;;;10.13;8.55;;;;;;;;;;5052534;28;20390;-82
2020/12/28 11:52:35;;;;;;;10.05;8.65;;;;;;;;;;5043471;28;20458;-94
2020/12/28 11:55:01;;;;;;;8.93;7.88;;;;;;;;;;5046388;28;20480;-86
2020/12/28 11:57:28;;;;;;;10.43;7.95;;;;;;;;;;5060900;28;20366;-79
2020/12/28 11:59:54;;;;;;;9.90;8.10;;;;;;;;;;5040234;28;20434;-80
2020/12/28 12:02:21;;;;;;;8.40;7.53;;;;;;;;;;5060173;28;20364;-82
2020/12/28 12:04:56;;;;;;;8.20;7.40;;;;;;;;;;5045444;28;20380;-81
2020/12/28 12:07:24;;;;;;;10.57;8.15;;;;;;;;;;5053393;28;20413;-79
2020/12/28 12:09:51;;;;;;;8.55;7.68;;;;;;;;;;5073779;28;20407;-79
2020/12/28 12:12:17;;;;;;;9.75;8.25;;;;;;;;;;5059915;28;20368;-83
2020/12/28 12:14:43;;;;;;;8.68;7.78;;;;;;;;;;5050837;28;20373;-88
2020/12/28 12:17:10;;;;;;;8.98;8.07;;;;;;;;;;5055924;28;20370;-84
2020/12/28 12:19:36;;;;;;;10.05;8.45;;;;;;;;;;5038599;28;20501;-81
2020/12/28 12:22:03;;;;;;;10.80;7.80;;;;;;;;;;5072346;28;20369;-81
2020/12/28 12:24:29;;;;;;;8.13;7.18;;;;;;;;;;5060863;28;20451;-82
2020/12/28 12:26:55;;;;;;;9.85;7.82;;;;;;;;;;5055261;28;20393;-82
2020/12/28 12:29:21;;;;;;;9.43;7.90;;;;;;;;;;5055163;28;20366;-81
2020/12/28 12:31:51;;;;;;;8.15;7.35;;;;;;;;;;5055567;28;20926;-81
2020/12/28 12:34:17;;;;;;;9.45;8.05;;;;;;;;;;5073107;28;20380;-81
2020/12/28 12:36:43;;;;;;;8.63;7.57;;;;;;;;;;5073457;28;20385;-80
2020/12/28 12:39:09;;;;;;;8.35;7.40;;;;;;;;;;5054650;28;20425;-83
2020/12/28 12:41:36;;;;;;;9.18;7.63;;;;;;;;;;5054503;28;20370;-81
2020/12/28 12:44:02;;;;;;;8.43;7.53;;;;;;;;;;5067539;28;20441;-81
2020/12/28 12:46:28;;;;;;;8.98;8.02;;;;;;;;;;5037176;28;20488;-84
2020/12/28 12:48:55;;;;;;;9.93;7.88;;;;;;;;;;5036916;28;20718;-81
2020/12/28 12:51:22;;;;;;;9.60;8.30;;;;;;;;;;5049980;28;20371;-81
2020/12/28 12:53:48;;;;;;;10.43;8.53;;;;;;;;;;5049124;28;20420;-81
2020/12/28 12:56:22;;;;;;;9.45;8.30;;;;;;;;;;5047094;28;20384;-82
2020/12/28 12:58:48;;;;;;;10.18;7.90;;;;;;;;;;5035048;28;20368;-79
2020/12/28 13:01:15;;;;;;;9.75;8.15;;;;;;;;;;5053294;28;20453;-79
2020/12/28 13:03:43;;;;;;;10.38;8.65;;;;;;;;;;5067385;28;20381;-82
2020/12/28 13:06:09;;;;;;;9.25;7.82;;;;;;;;;;5038991;28;20403;-82
2020/12/28 13:08:37;;;;;;;10.38;9.07;;;;;;;;;;5039295;28;20398;-79
2020/12/28 13:11:04;;;;;;;9.13;8.23;;;;;;;;;;5053890;28;20360;-84
2020/12/28 13:13:30;;;;;;;10.73;8.20;;;;;;;;;;5046860;28;20363;-83
2020/12/28 13:15:56;;;;;;;10.70;8.52;;;;;;;;;;5046487;28;20370;-81
2020/12/28 13:18:25;;;;;;;10.25;8.55;;;;;;;;;;5046731;28;20441;-79
2020/12/28 13:20:51;;;;;;;9.15;8.20;;;;;;;;;;5052668;28;20393;-81
2020/12/28 13:23:17;;;;;;;9.90;8.90;;;;;;;;;;5043080;28;20461;-83
2020/12/28 13:25:48;;;;;;;10.07;8.43;;;;;;;;;;5059260;28;20809;-82
2020/12/28 13:28:14;;;;;;;9.60;8.07;;;;;;;;;;5066441;28;20940;-80
2020/12/28 13:30:40;;;;;;;9.43;8.43;;;;;;;;;;5053312;28;20453;-81
2020/12/28 13:33:06;;;;;;;10.07;9.00;;;;;;;;;;5071949;28;20705;-82
2020/12/28 13:35:32;;;;;;;11.25;9.27;;;;;;;;;;5067714;28;20450;-80
2020/12/28 13:38:00;;;;;;;10.15;8.70;;;;;;;;;;5037730;28;20366;-85
2020/12/28 13:40:27;;;;;;;9.88;8.90;;;;;;;;;;5070415;28;20370;-81
2020/12/28 13:42:53;;;;;;;10.38;9.27;;;;;;;;;;5072241;28;20420;-81
2020/12/28 13:45:19;;;;;;;11.05;9.85;;;;;;;;;;5034502;28;20428;-82
2020/12/28 13:47:47;;;;;;;11.77;10.07;;;;;;;;;;5062206;28;20382;-77
2020/12/28 13:50:14;;;;;;;10.67;9.57;;;;;;;;;;5050205;28;20870;-85
2020/12/28 13:52:40;;;;;;;11.88;9.85;;;;;;;;;;5041087;28;20372;-78
2020/12/28 13:55:06;;;;;;;11.38;9.95;;;;;;;;;;5032766;28;20383;-87
2020/12/28 13:57:32;;;;;;;10.57;9.48;;;;;;;;;;5065500;28;20370;-81
2020/12/28 13:59:58;;;;;;;10.65;9.02;;;;;;;;;;5052824;28;20370;-80
2020/12/28 14:02:24;;;;;;;11.17;9.50;;;;;;;;;;5070849;28;20420;-81
2020/12/28 14:04:50;;;;;;;9.93;8.82;;;;;;;;;;5052761;28;20386;-80
2020/12/28 14:07:17;;;;;;;10.73;9.53;;;;;;;;;;5052198;28;20473;-81
2020/12/28 14:09:43;;;;;;;10.80;8.55;;;;;;;;;;5071660;28;20366;-81
2020/12/28 14:12:09;;;;;;;10.23;9.10;;;;;;;;;;5071201;28;20479;-78
2020/12/28 14:14:35;;;;;;;10.93;9.77;;;;;;;;;;5071946;28;20832;-80
2020/12/28 14:17:01;;;;;;;12.95;11.30;;;;;;;;;;5053987;28;20413;-79
2020/12/28 14:19:27;;;;;;;10.38;9.38;;;;;;;;;;5070547;28;20390;-80
2020/12/28 14:21:53;;;;;;;10.55;9.45;;;;;;;;;;5071304;28;20365;-77
2020/12/28 14:24:19;;;;;;;9.88;8.70;;;;;;;;;;5054055;28;20457;-83
2020/12/28 14:26:47;;;;;;;10.73;9.63;;;;;;;;;;5054125;28;20960;-81
2020/12/28 14:29:13;;;;;;;10.85;9.57;;;;;;;;;;5071496;28;20401;-78
2020/12/28 14:31:39;;;;;;;11.65;10.45;;;;;;;;;;5054383;28;20365;-81